Time;durP1;ratioP1;P1;durP2;ratioP2;P2;SDS_P1;SDS_P2;PMS_P1;PMS_P2;Temp;Humidity;BMP_temperature;BMP_pressure;BME280_temperature;BME280_humidity;BME280_pressure;Samples;Min_cycle;Max_cycle;Signal;HPM_P1;HPM_P2
2023/07/01 00:01:49;;;;;;;6.75;1.90;;;17.30;99.90;;;;;;5126803;27;20051;-63
2023/07/01 00:04:15;;;;;;;6.90;1.95;;;17.30;99.90;;;;;;5132038;27;20038;-62
2023/07/01 00:06:43;;;;;;;7.55;1.80;;;17.30;99.90;;;;;;5146950;27;20512;-62
2023/07/01 00:09:10;;;;;;;5.78;1.70;;;17.30;99.90;;;;;;5122343;27;20492;-62
2023/07/01 00:11:36;;;;;;;9.65;2.30;;;17.40;99.90;;;;;;5139721;27;20047;-63
2023/07/01 00:14:02;;;;;;;7.70;2.05;;;17.30;99.90;;;;;;5123771;27;20109;-62
2023/07/01 00:16:27;;;;;;;7.78;2.22;;;17.30;99.90;;;;;;5148735;27;20121;-63
2023/07/01 00:18:53;;;;;;;9.00;1.88;;;17.30;99.90;;;;;;5116460;27;20049;-62
2023/07/01 00:21:19;;;;;;;6.80;2.30;;;17.30;99.90;;;;;;5146458;27;20034;-64
2023/07/01 00:23:45;;;;;;;9.10;2.03;;;17.30;99.90;;;;;;5124119;27;20118;-63
2023/07/01 00:26:11;;;;;;;6.60;2.17;;;17.30;99.90;;;;;;5124597;27;20172;-63
2023/07/01 00:28:36;;;;;;;7.75;1.92;;;17.30;99.90;;;;;;5109001;27;20046;-63
2023/07/01 00:31:02;;;;;;;5.65;2.10;;;17.30;99.90;;;;;;5125755;27;20042;-63
2023/07/01 00:33:27;;;;;;;6.20;1.77;;;17.30;99.90;;;;;;5148738;27;20039;-62
2023/07/01 00:35:53;;;;;;;8.90;1.95;;;17.30;99.90;;;;;;5138448;27;20401;-62
2023/07/01 00:38:19;;;;;;;5.07;1.65;;;17.30;99.90;;;;;;5123106;27;20515;-62
2023/07/01 00:40:44;;;;;;;6.97;2.05;;;17.30;99.90;;;;;;5146808;27;20438;-62
2023/07/01 00:43:10;;;;;;;7.55;2.42;;;17.30;99.90;;;;;;5124485;27;20071;-62
2023/07/01 00:45:36;;;;;;;5.30;2.00;;;17.30;99.90;;;;;;5149330;27;20116;-62
2023/07/01 00:48:01;;;;;;;8.77;2.15;;;17.30;99.90;;;;;;5129376;27;20497;-62
2023/07/01 00:50:27;;;;;;;8.70;2.50;;;17.30;99.90;;;;;;5139339;27;20023;-62
2023/07/01 00:52:53;;;;;;;5.47;1.77;;;17.30;99.90;;;;;;5118459;28;20049;-62
2023/07/01 00:55:19;;;;;;;9.20;2.10;;;17.30;99.90;;;;;;5114827;28;20043;-63
2023/07/01 00:57:44;;;;;;;9.13;2.15;;;17.30;99.90;;;;;;5123748;27;20651;-62
2023/07/01 01:00:12;;;;;;;8.93;2.40;;;17.30;99.90;;;;;;5115513;27;20473;-61
2023/07/01 01:03:04;;;;;;;9.85;2.00;;;17.30;99.90;;;;;;5104800;27;20038;-62
2023/07/01 01:05:39;;;;;;;5.97;2.53;;;17.30;99.90;;;;;;5119678;27;20041;-63
2023/07/01 01:08:31;;;;;;;5.80;2.03;;;17.30;99.90;;;;;;5155973;27;20505;-62
2023/07/01 01:10:59;;;;;;;7.83;2.00;;;17.30;99.90;;;;;;5086378;27;20402;-63
2023/07/01 01:13:28;;;;;;;7.95;2.30;;;17.30;99.90;;;;;;5121607;27;20078;-62
2023/07/01 01:15:56;;;;;;;7.47;2.10;;;17.20;99.90;;;;;;5154797;27;20397;-63
2023/07/01 01:18:24;;;;;;;5.60;2.00;;;17.20;99.90;;;;;;5147063;27;20069;-62
2023/07/01 01:20:51;;;;;;;6.13;2.55;;;17.20;99.90;;;;;;5144542;27;20466;-62
2023/07/01 01:23:42;;;;;;;4.97;2.42;;;17.20;99.90;;;;;;5143837;27;20038;-62
2023/07/01 01:26:22;;;;;;;12.25;2.50;;;17.20;99.90;;;;;;5133515;27;20050;-62
2023/07/01 01:28:50;;;;;;;6.90;2.10;;;17.30;99.90;;;;;;5125627;27;20038;-63
2023/07/01 01:31:15;;;;;;;6.15;2.28;;;17.30;99.90;;;;;;5124513;27;20066;-63
2023/07/01 01:33:41;;;;;;;6.30;2.45;;;17.20;99.90;;;;;;5130978;27;20036;-63
2023/07/01 01:36:10;;;;;;;6.35;2.33;;;17.20;99.90;;;;;;5130096;27;20165;-62
2023/07/01 01:38:39;;;;;;;5.95;2.03;;;17.20;99.90;;;;;;5152031;27;20034;-63
2023/07/01 01:41:14;;;;;;;4.97;2.15;;;17.20;99.90;;;;;;5126835;27;20086;-63
2023/07/01 01:44:07;;;;;;;7.20;2.50;;;17.20;99.90;;;;;;5150906;27;20070;-63
2023/07/01 01:46:35;;;;;;;6.60;2.65;;;17.20;99.90;;;;;;5055051;28;20105;-62
2023/07/01 01:49:03;;;;;;;10.52;3.47;;;17.20;99.90;;;;;;5045208;28;20044;-62
2023/07/01 01:51:32;;;;;;;8.95;2.90;;;17.10;99.90;;;;;;5035801;28;20057;-63
2023/07/01 01:53:58;;;;;;;8.23;2.75;;;17.10;99.90;;;;;;5059653;28;20455;-63
2023/07/01 01:56:26;;;;;;;6.35;3.20;;;17.10;99.90;;;;;;5052531;28;20037;-62
2023/07/01 01:58:52;;;;;;;9.75;2.97;;;17.10;99.90;;;;;;5050496;28;20101;-63
2023/07/01 02:01:18;;;;;;;7.50;2.35;;;17.10;99.90;;;;;;5045005;28;20046;-62
2023/07/01 02:03:46;;;;;;;7.90;2.83;;;17.10;99.90;;;;;;5055763;28;20126;-64
2023/07/01 02:06:12;;;;;;;8.00;2.70;;;17.10;99.90;;;;;;5047292;28;20033;-62
2023/07/01 02:08:38;;;;;;;5.80;2.50;;;17.20;99.90;;;;;;5053004;28;20085;-63
2023/07/01 02:11:03;;;;;;;6.95;2.40;;;17.20;99.90;;;;;;5062737;28;20385;-63
2023/07/01 02:13:29;;;;;;;6.05;2.97;;;17.20;99.90;;;;;;5050954;28;20483;-63
2023/07/01 02:15:55;;;;;;;5.25;2.78;;;17.20;99.90;;;;;;5062774;28;20111;-63
2023/07/01 02:18:20;;;;;;;8.00;2.70;;;17.20;99.90;;;;;;5047497;28;20136;-62
2023/07/01 02:20:46;;;;;;;4.88;2.72;;;17.20;99.90;;;;;;5058446;28;20089;-63
2023/07/01 02:23:11;;;;;;;5.10;2.83;;;17.20;99.90;;;;;;5073380;27;20109;-63
2023/07/01 02:25:37;;;;;;;8.00;2.55;;;17.10;99.90;;;;;;5150564;27;20051;-62
2023/07/01 02:28:03;;;;;;;6.50;2.28;;;17.10;99.90;;;;;;5153814;27;20113;-63
2023/07/01 02:30:31;;;;;;;8.23;2.40;;;17.10;99.90;;;;;;5152535;27;20057;-62
2023/07/01 02:32:57;;;;;;;7.05;2.65;;;17.10;99.90;;;;;;5154499;27;20035;-62
2023/07/01 02:35:22;;;;;;;6.82;2.60;;;17.00;99.90;;;;;;5130905;27;20035;-63
2023/07/01 02:37:48;;;;;;;11.30;3.10;;;17.00;99.90;;;;;;5118784;27;20095;-64
2023/07/01 02:40:13;;;;;;;6.22;2.63;;;17.00;99.90;;;;;;5118956;27;20046;-62
2023/07/01 02:42:39;;;;;;;6.63;2.53;;;17.00;99.90;;;;;;5150871;27;20035;-63
2023/07/01 02:45:05;;;;;;;8.07;2.63;;;16.90;99.90;;;;;;5128415;27;20034;-63
2023/07/01 02:47:31;;;;;;;4.45;2.40;;;16.90;99.90;;;;;;5121738;27;20043;-63
2023/07/01 02:49:57;;;;;;;5.55;2.60;;;16.90;99.90;;;;;;5142190;27;20059;-62
2023/07/01 02:52:22;;;;;;;9.50;2.58;;;16.90;99.90;;;;;;5123185;27;20066;-62
2023/07/01 02:54:48;;;;;;;5.82;2.75;;;16.80;99.90;;;;;;5136764;27;20038;-63
2023/07/01 02:57:14;;;;;;;6.47;2.55;;;16.80;99.90;;;;;;5139815;27;20106;-63
2023/07/01 02:59:39;;;;;;;8.10;2.72;;;16.70;99.90;;;;;;5141211;27;20094;-63
2023/07/01 03:02:06;;;;;;;6.65;2.65;;;16.70;99.90;;;;;;5133646;27;20134;-63
2023/07/01 03:04:33;;;;;;;5.45;2.58;;;16.70;99.90;;;;;;5135427;27;20035;-62
2023/07/01 03:06:59;;;;;;;6.68;2.85;;;16.70;99.90;;;;;;5137760;27;20069;-63
2023/07/01 03:09:25;;;;;;;8.07;2.80;;;16.60;99.90;;;;;;5140375;27;20470;-62
2023/07/01 03:11:52;;;;;;;14.60;2.83;;;16.60;99.90;;;;;;5114626;27;20051;-64
2023/07/01 03:14:18;;;;;;;6.90;2.40;;;16.60;99.90;;;;;;5125950;27;20043;-63
2023/07/01 03:16:44;;;;;;;7.15;2.40;;;16.50;99.90;;;;;;5115003;27;20043;-63
2023/07/01 03:19:10;;;;;;;7.20;2.67;;;16.50;99.90;;;;;;5134928;27;20133;-63
2023/07/01 03:21:37;;;;;;;7.07;2.60;;;16.40;99.90;;;;;;5120649;27;20043;-63
2023/07/01 03:24:03;;;;;;;6.47;2.72;;;16.40;99.90;;;;;;5137808;27;20039;-64
2023/07/01 03:26:28;;;;;;;10.10;2.95;;;16.30;99.90;;;;;;5114342;27;20042;-63
2023/07/01 03:28:54;;;;;;;5.47;2.50;;;16.20;99.90;;;;;;5115112;27;20522;-64
2023/07/01 03:31:23;;;;;;;4.05;2.50;;;16.20;99.90;;;;;;5120344;27;20043;-64
2023/07/01 03:33:49;;;;;;;6.05;2.80;;;16.10;99.90;;;;;;5113583;27;20042;-63
2023/07/01 03:36:16;;;;;;;5.20;2.50;;;16.10;99.90;;;;;;5135439;27;20038;-62
2023/07/01 03:38:41;;;;;;;7.47;2.78;;;16.10;99.90;;;;;;5143647;27;20039;-62
2023/07/01 03:41:07;;;;;;;6.63;2.63;;;16.10;99.90;;;;;;5114734;27;20486;-63
2023/07/01 03:43:34;;;;;;;7.18;2.80;;;16.10;99.90;;;;;;5142237;27;20105;-63
2023/07/01 03:45:59;;;;;;;4.45;2.60;;;16.10;99.90;;;;;;5129073;27;20537;-63
2023/07/01 03:48:25;;;;;;;4.68;2.83;;;16.00;99.90;;;;;;5130641;27;20117;-62
2023/07/01 03:50:51;;;;;;;4.35;2.88;;;16.00;99.90;;;;;;5098750;27;20051;-62
2023/07/01 03:53:16;;;;;;;5.82;2.80;;;16.00;99.90;;;;;;5143703;27;20031;-61
2023/07/01 03:55:42;;;;;;;6.15;2.88;;;16.00;99.90;;;;;;5124757;27;20047;-63
2023/07/01 03:58:08;;;;;;;4.60;2.92;;;16.00;99.90;;;;;;5139440;27;20052;-62
2023/07/01 04:00:33;;;;;;;5.93;3.20;;;16.00;99.90;;;;;;5142804;27;20031;-63
2023/07/01 04:03:09;;;;;;;5.35;3.00;;;16.10;99.90;;;;;;5137943;27;20079;-62
2023/07/01 04:05:35;;;;;;;8.43;3.35;;;16.00;99.90;;;;;;5115555;27;20058;-63
2023/07/01 04:08:02;;;;;;;6.10;2.92;;;16.00;99.90;;;;;;5119987;27;20036;-62
2023/07/01 04:10:28;;;;;;;6.70;3.03;;;16.00;99.90;;;;;;5108718;28;20040;-63
2023/07/01 04:12:55;;;;;;;4.70;2.80;;;16.00;99.90;;;;;;5110830;28;20440;-63
2023/07/01 04:15:21;;;;;;;7.22;2.97;;;16.00;99.90;;;;;;5107844;28;20047;-63
2023/07/01 04:17:48;;;;;;;6.88;3.25;;;16.00;99.90;;;;;;5108753;28;20588;-63
2023/07/01 04:20:15;;;;;;;4.57;2.97;;;16.00;99.90;;;;;;5109141;28;20114;-62
2023/07/01 04:22:41;;;;;;;7.10;3.30;;;16.00;99.90;;;;;;5109542;28;20047;-62
2023/07/01 04:25:08;;;;;;;6.22;2.92;;;16.00;99.90;;;;;;5109160;28;20043;-63
2023/07/01 04:27:35;;;;;;;4.32;3.00;;;16.00;99.90;;;;;;5104356;28;20055;-62
2023/07/01 04:30:01;;;;;;;7.45;3.05;;;16.00;99.90;;;;;;5109904;28;20042;-63
2023/07/01 04:32:28;;;;;;;4.80;3.10;;;16.00;99.90;;;;;;5089912;28;20043;-62
2023/07/01 04:34:54;;;;;;;7.50;3.20;;;16.00;99.90;;;;;;5110318;28;20031;-63
2023/07/01 04:37:20;;;;;;;5.30;3.10;;;16.00;99.90;;;;;;5108619;28;20050;-63
2023/07/01 04:39:46;;;;;;;7.65;3.10;;;16.00;99.90;;;;;;5109908;28;20032;-62
2023/07/01 04:42:11;;;;;;;3.65;2.85;;;15.90;99.90;;;;;;5107543;28;20036;-63
2023/07/01 04:44:37;;;;;;;6.47;3.10;;;16.00;99.90;;;;;;5108540;28;20075;-63
2023/07/01 04:47:03;;;;;;;10.45;3.47;;;16.00;99.90;;;;;;5108060;28;20050;-62
2023/07/01 04:49:29;;;;;;;6.68;3.25;;;16.00;99.90;;;;;;5107527;28;20112;-63
2023/07/01 04:51:55;;;;;;;10.27;3.33;;;16.00;99.90;;;;;;5109856;28;20039;-62
2023/07/01 04:54:21;;;;;;;7.45;3.25;;;16.00;99.90;;;;;;5110116;28;20028;-63
2023/07/01 04:56:46;;;;;;;5.28;3.55;;;15.90;99.90;;;;;;5110029;28;20105;-63
2023/07/01 04:59:12;;;;;;;6.22;3.22;;;16.00;99.90;;;;;;5105718;28;20126;-62
2023/07/01 05:01:38;;;;;;;5.40;3.60;;;16.00;99.90;;;;;;5109622;28;20554;-63
2023/07/01 05:04:04;;;;;;;8.45;3.47;;;16.00;99.90;;;;;;5108571;28;20035;-63
2023/07/01 05:06:31;;;;;;;6.22;3.17;;;16.00;99.90;;;;;;5110027;28;20072;-62
2023/07/01 05:08:57;;;;;;;7.78;3.42;;;16.00;99.90;;;;;;5121853;28;20059;-62
2023/07/01 05:11:23;;;;;;;6.88;3.22;;;16.00;99.90;;;;;;5096992;28;20139;-62
2023/07/01 05:13:49;;;;;;;6.90;3.63;;;16.00;99.90;;;;;;5112067;28;20040;-62
2023/07/01 05:16:14;;;;;;;5.63;2.88;;;16.00;99.90;;;;;;5114917;28;20043;-63
2023/07/01 05:18:40;;;;;;;4.55;3.15;;;16.10;99.90;;;;;;5122915;28;20040;-64
2023/07/01 05:21:05;;;;;;;4.70;3.20;;;16.10;99.90;;;;;;5120524;28;20058;-63
2023/07/01 05:23:31;;;;;;;6.53;3.10;;;16.10;99.90;;;;;;5123593;28;20047;-62
2023/07/01 05:25:57;;;;;;;5.13;3.05;;;16.20;99.90;;;;;;5124115;28;20063;-62
2023/07/01 05:28:22;;;;;;;5.65;2.90;;;16.20;99.90;;;;;;5111701;28;20117;-62
2023/07/01 05:30:48;;;;;;;5.57;3.10;;;16.20;99.90;;;;;;5102602;28;20039;-62
2023/07/01 05:33:14;;;;;;;4.22;2.97;;;16.20;99.90;;;;;;5117041;28;20044;-62
2023/07/01 05:35:40;;;;;;;5.80;3.22;;;16.30;99.90;;;;;;5117782;28;20042;-62
2023/07/01 05:38:10;;;;;;;7.20;3.15;;;16.30;99.90;;;;;;5111610;28;20075;-62
2023/07/01 05:40:35;;;;;;;5.22;3.30;;;16.20;99.90;;;;;;5110016;28;20051;-61
2023/07/01 05:43:01;;;;;;;11.05;3.40;;;16.30;99.90;;;;;;5119179;28;20505;-61
2023/07/01 05:45:27;;;;;;;6.50;3.42;;;16.20;99.90;;;;;;5118227;28;20067;-62
2023/07/01 05:47:52;;;;;;;7.13;3.95;;;16.20;99.90;;;;;;5117721;28;20035;-61
2023/07/01 05:50:18;;;;;;;4.70;3.50;;;16.20;99.90;;;;;;5121154;28;20047;-62
2023/07/01 05:52:43;;;;;;;4.90;3.63;;;16.20;99.90;;;;;;5121545;27;20043;-61
2023/07/01 05:55:09;;;;;;;6.28;3.58;;;16.20;99.90;;;;;;5126862;27;20039;-62
2023/07/01 05:57:35;;;;;;;9.68;3.97;;;16.20;99.90;;;;;;5130604;27;20039;-61
2023/07/01 06:00:03;;;;;;;5.07;3.60;;;16.20;99.90;;;;;;5129045;27;20035;-62
2023/07/01 06:02:29;;;;;;;7.15;4.80;;;16.20;99.90;;;;;;5126779;27;20062;-61
2023/07/01 06:04:54;;;;;;;4.93;4.00;;;16.20;99.90;;;;;;5124770;27;20481;-62
2023/07/01 06:07:20;;;;;;;8.00;4.72;;;16.10;99.90;;;;;;5132405;27;20043;-61
2023/07/01 06:09:47;;;;;;;6.80;4.00;;;16.10;99.90;;;;;;5137322;27;20062;-62
2023/07/01 06:12:13;;;;;;;6.68;4.60;;;16.10;99.90;;;;;;5115173;27;20040;-61
2023/07/01 06:14:38;;;;;;;6.55;4.47;;;16.10;99.90;;;;;;5122263;27;20107;-61
2023/07/01 06:17:04;;;;;;;8.85;4.50;;;16.10;99.90;;;;;;5120555;27;20073;-63
2023/07/01 06:19:30;;;;;;;10.80;5.22;;;16.10;99.90;;;;;;5114508;27;20055;-61
2023/07/01 06:21:55;;;;;;;10.80;5.50;;;16.00;99.90;;;;;;5134159;27;20083;-61
2023/07/01 06:24:21;;;;;;;9.05;5.20;;;16.00;99.90;;;;;;5129394;27;20482;-61
2023/07/01 06:26:46;;;;;;;6.22;4.95;;;15.90;99.90;;;;;;5124582;27;20071;-61
2023/07/01 06:29:12;;;;;;;6.88;4.97;;;15.90;99.90;;;;;;5147841;27;20041;-62
2023/07/01 06:31:38;;;;;;;6.38;5.10;;;15.90;99.90;;;;;;5121773;27;20034;-60
2023/07/01 06:34:12;;;;;;;7.82;5.30;;;15.90;99.90;;;;;;5135281;27;20062;-61
2023/07/01 06:36:37;;;;;;;7.97;5.38;;;15.90;99.90;;;;;;5132881;27;20078;-62
2023/07/01 06:39:04;;;;;;;6.60;5.07;;;15.90;99.90;;;;;;5149986;27;20062;-61
2023/07/01 06:41:29;;;;;;;7.30;5.22;;;15.90;99.90;;;;;;5145465;27;20463;-62
2023/07/01 06:43:55;;;;;;;7.40;5.20;;;15.90;99.90;;;;;;5117178;27;20134;-61
2023/07/01 06:46:21;;;;;;;7.05;5.40;;;16.00;99.90;;;;;;5127253;27;20110;-61
2023/07/01 06:48:46;;;;;;;10.27;6.45;;;15.90;99.90;;;;;;5130553;27;20031;-61
2023/07/01 06:51:13;;;;;;;8.07;5.32;;;16.00;99.90;;;;;;5119883;27;20042;-61
2023/07/01 06:53:40;;;;;;;8.55;5.63;;;16.00;99.90;;;;;;5102605;27;20062;-61
2023/07/01 06:56:06;;;;;;;7.15;5.18;;;16.00;99.90;;;;;;5137912;27;20114;-61
2023/07/01 06:58:32;;;;;;;8.07;5.97;;;16.00;99.90;;;;;;5137016;27;20036;-61
2023/07/01 07:00:57;;;;;;;6.53;5.85;;;16.00;99.90;;;;;;5132781;27;20035;-61
2023/07/01 07:03:23;;;;;;;7.70;5.70;;;16.10;99.90;;;;;;5132970;27;20042;-61
2023/07/01 07:05:49;;;;;;;11.80;6.28;;;16.10;99.90;;;;;;5148940;27;20062;-62
2023/07/01 07:08:14;;;;;;;6.80;6.10;;;16.10;99.90;;;;;;5144629;27;20126;-61
2023/07/01 07:10:40;;;;;;;7.85;5.93;;;16.10;99.90;;;;;;5115824;27;20079;-62
2023/07/01 07:13:06;;;;;;;9.05;6.18;;;16.10;99.90;;;;;;5135516;27;20028;-61
2023/07/01 07:15:31;;;;;;;7.10;6.40;;;16.10;99.90;;;;;;5135780;27;20374;-62
2023/07/01 07:17:57;;;;;;;6.68;5.88;;;16.10;99.90;;;;;;5134248;27;20031;-61
2023/07/01 07:20:23;;;;;;;9.00;6.03;;;16.10;99.90;;;;;;5139682;27;20031;-61
2023/07/01 07:22:48;;;;;;;8.55;6.25;;;16.20;99.90;;;;;;5138074;27;20078;-61
2023/07/01 07:25:16;;;;;;;6.90;6.20;;;16.20;99.90;;;;;;5115135;27;20039;-61
2023/07/01 07:27:43;;;;;;;7.88;6.20;;;16.20;99.90;;;;;;5131751;27;20050;-61
2023/07/01 07:30:10;;;;;;;8.02;6.30;;;16.30;99.90;;;;;;5116520;27;20042;-62
2023/07/01 07:32:36;;;;;;;8.23;6.80;;;16.30;99.90;;;;;;5131099;27;20035;-61
2023/07/01 07:35:02;;;;;;;6.82;6.13;;;16.30;99.90;;;;;;5131377;27;20031;-60
2023/07/01 07:37:28;;;;;;;7.70;6.35;;;16.40;99.90;;;;;;5125057;27;20035;-61
2023/07/01 07:39:55;;;;;;;7.20;6.50;;;16.40;99.90;;;;;;5151687;27;20076;-62
2023/07/01 07:42:21;;;;;;;7.38;5.93;;;16.40;99.90;;;;;;5150953;27;20061;-62
2023/07/01 07:44:47;;;;;;;7.85;6.25;;;16.40;99.90;;;;;;5137294;27;20396;-62
2023/07/01 07:47:14;;;;;;;10.63;7.15;;;16.40;99.90;;;;;;5099302;27;20114;-61
2023/07/01 07:49:39;;;;;;;7.72;6.47;;;16.50;99.90;;;;;;5132508;27;20095;-61
2023/07/01 07:52:05;;;;;;;7.72;6.95;;;16.50;99.90;;;;;;5114198;27;20047;-61
2023/07/01 07:54:31;;;;;;;6.88;6.18;;;16.60;99.90;;;;;;5149246;27;20031;-61
2023/07/01 07:56:59;;;;;;;8.18;6.53;;;16.60;99.90;;;;;;5142958;27;20435;-62
2023/07/01 07:59:28;;;;;;;6.30;5.70;;;16.70;99.90;;;;;;5122276;27;20080;-61
2023/07/01 08:01:57;;;;;;;6.00;5.40;;;16.60;99.90;;;;;;5138683;27;20098;-61
2023/07/01 08:04:23;;;;;;;6.43;5.82;;;16.70;99.90;;;;;;5132262;27;20096;-61
2023/07/01 08:06:48;;;;;;;7.25;5.80;;;16.70;99.90;;;;;;5129431;27;20043;-61
2023/07/01 08:09:14;;;;;;;7.68;5.78;;;16.70;99.90;;;;;;5130881;27;20401;-61
2023/07/01 08:11:41;;;;;;;7.22;5.70;;;16.70;99.90;;;;;;5112924;27;20054;-61
2023/07/01 08:14:06;;;;;;;6.60;5.95;;;16.80;99.90;;;;;;5134749;27;20037;-61
2023/07/01 08:16:32;;;;;;;6.43;5.82;;;16.80;99.90;;;;;;5131104;27;20118;-62
2023/07/01 08:18:58;;;;;;;6.10;5.60;;;16.80;99.90;;;;;;5125700;27;20043;-61
2023/07/01 08:21:23;;;;;;;6.85;6.15;;;16.80;99.90;;;;;;5103560;27;20096;-61
2023/07/01 08:23:49;;;;;;;6.45;5.85;;;16.90;99.90;;;;;;5101638;27;20071;-61
2023/07/01 08:26:15;;;;;;;5.68;5.22;;;16.80;99.90;;;;;;5130735;27;20371;-61
2023/07/01 08:28:40;;;;;;;6.80;6.20;;;16.80;99.90;;;;;;5134912;27;20072;-63
2023/07/01 08:31:06;;;;;;;6.25;5.65;;;16.80;99.90;;;;;;5146918;27;20396;-61
2023/07/01 08:33:33;;;;;;;7.00;6.03;;;16.80;99.90;;;;;;5130927;27;20038;-62
2023/07/01 08:35:58;;;;;;;6.18;5.68;;;16.90;99.90;;;;;;5130687;27;20447;-61
2023/07/01 08:38:25;;;;;;;6.93;6.22;;;16.90;99.90;;;;;;5132927;27;20031;-62
2023/07/01 08:40:54;;;;;;;6.20;5.70;;;16.90;99.90;;;;;;5142816;27;20095;-61
2023/07/01 08:43:27;;;;;;;6.60;5.88;;;16.90;99.90;;;;;;5132664;27;20397;-62
2023/07/01 08:45:55;;;;;;;6.55;5.50;;;17.00;99.90;;;;;;5135973;27;20050;-61
2023/07/01 08:48:22;;;;;;;6.90;5.85;;;16.90;99.90;;;;;;5116152;27;20535;-60
2023/07/01 08:51:03;;;;;;;7.68;6.22;;;17.00;99.90;;;;;;5111905;27;20087;-62
2023/07/01 08:53:29;;;;;;;6.80;6.13;;;17.00;99.90;;;;;;5113531;27;20104;-62
2023/07/01 08:55:56;;;;;;;7.38;5.78;;;17.00;99.90;;;;;;5140564;27;20076;-61
2023/07/01 08:58:23;;;;;;;7.28;6.57;;;17.10;99.90;;;;;;5151115;27;20042;-62
2023/07/01 09:00:49;;;;;;;7.88;6.10;;;17.10;99.90;;;;;;5151097;27;20113;-62
2023/07/01 09:03:15;;;;;;;7.13;6.43;;;17.10;99.90;;;;;;5145745;27;20115;-61
2023/07/01 09:05:41;;;;;;;6.57;5.97;;;17.10;99.90;;;;;;5130542;27;20103;-62
2023/07/01 09:08:07;;;;;;;7.05;6.45;;;17.10;99.90;;;;;;5130124;27;20050;-61
2023/07/01 09:10:34;;;;;;;7.90;6.25;;;17.10;99.90;;;;;;5130230;27;20047;-62
2023/07/01 09:13:12;;;;;;;7.03;6.35;;;17.10;99.90;;;;;;5111653;27;20118;-61
2023/07/01 09:15:49;;;;;;;7.95;6.40;;;17.20;99.90;;;;;;5111974;27;20039;-61
2023/07/01 09:18:22;;;;;;;7.38;6.75;;;17.20;99.90;;;;;;5123124;27;20473;-63
2023/07/01 09:20:51;;;;;;;6.57;5.97;;;17.30;99.90;;;;;;5111678;27;20051;-61
2023/07/01 09:23:34;;;;;;;6.40;5.80;;;17.30;99.90;;;;;;5149756;27;20031;-61
2023/07/01 09:26:10;;;;;;;6.60;6.00;;;17.40;99.90;;;;;;5132220;27;20054;-63
2023/07/01 09:28:36;;;;;;;6.20;5.70;;;17.40;99.90;;;;;;5133873;27;20066;-61
2023/07/01 09:31:03;;;;;;;6.78;6.18;;;17.40;99.90;;;;;;5134129;27;20039;-61
2023/07/01 09:33:31;;;;;;;6.05;5.55;;;17.40;99.90;;;;;;5134100;27;20043;-62
2023/07/01 09:36:02;;;;;;;7.78;5.95;;;17.40;99.90;;;;;;5117150;27;20042;-61
2023/07/01 09:38:28;;;;;;;6.78;6.07;;;17.40;99.90;;;;;;5135274;27;20034;-61
2023/07/01 09:40:54;;;;;;;8.23;6.65;;;17.40;99.90;;;;;;5154234;27;20035;-63
2023/07/01 09:43:19;;;;;;;6.75;5.72;;;17.50;99.90;;;;;;5150833;27;20034;-62
2023/07/01 09:45:57;;;;;;;6.88;6.28;;;17.50;99.90;;;;;;5135680;27;20390;-61
2023/07/01 09:48:24;;;;;;;6.70;6.15;;;17.60;99.90;;;;;;5143001;27;20042;-61
2023/07/01 09:50:50;;;;;;;7.00;6.40;;;17.60;99.90;;;;;;5124692;27;20050;-62
2023/07/01 09:53:20;;;;;;;6.40;5.90;;;17.70;99.90;;;;;;5142288;27;20035;-62
2023/07/01 09:55:47;;;;;;;6.55;5.95;;;17.60;99.90;;;;;;5115655;27;20058;-61
2023/07/01 09:58:13;;;;;;;6.32;5.75;;;17.60;99.90;;;;;;5117830;27;20050;-62
2023/07/01 10:00:39;;;;;;;6.22;5.72;;;17.60;99.90;;;;;;5135537;27;20090;-60
2023/07/01 10:03:07;;;;;;;5.68;5.18;;;17.60;99.90;;;;;;5153833;27;20404;-61
2023/07/01 10:05:34;;;;;;;6.43;5.65;;;17.60;99.90;;;;;;5154040;27;20423;-61
2023/07/01 10:08:00;;;;;;;6.40;5.80;;;17.70;99.90;;;;;;5134406;27;20066;-61
2023/07/01 10:10:26;;;;;;;6.32;5.70;;;17.70;99.90;;;;;;5140755;27;20035;-61
2023/07/01 10:12:53;;;;;;;6.60;5.55;;;17.80;99.90;;;;;;5133098;27;20122;-61
2023/07/01 10:15:24;;;;;;;6.07;5.55;;;17.80;99.90;;;;;;5134519;27;20035;-61
2023/07/01 10:17:52;;;;;;;11.68;5.90;;;17.90;99.90;;;;;;5134930;27;20031;-62
2023/07/01 10:20:28;;;;;;;6.82;5.50;;;17.90;99.90;;;;;;5139427;27;20445;-62
2023/07/01 10:23:02;;;;;;;6.20;5.50;;;17.90;99.90;;;;;;5122436;27;20043;-62
2023/07/01 10:25:35;;;;;;;6.45;5.93;;;17.90;99.90;;;;;;5153474;27;20111;-64
2023/07/01 10:28:01;;;;;;;6.35;5.75;;;17.90;99.90;;;;;;5140411;27;20031;-64
2023/07/01 10:30:46;;;;;;;6.07;5.57;;;17.90;99.90;;;;;;5119159;27;20038;-63
2023/07/01 10:33:31;;;;;;;7.07;6.32;;;18.00;99.90;;;;;;5115374;27;20382;-64
2023/07/01 10:36:01;;;;;;;7.57;6.35;;;18.00;99.90;;;;;;5114265;27;20039;-64
2023/07/01 10:38:27;;;;;;;7.13;6.43;;;18.00;99.90;;;;;;5148455;27;20526;-63
2023/07/01 10:40:52;;;;;;;6.68;6.07;;;18.00;99.90;;;;;;5144491;27;20034;-63
2023/07/01 10:43:23;;;;;;;6.40;5.63;;;18.00;99.90;;;;;;5115555;27;20055;-64
2023/07/01 10:46:08;;;;;;;6.40;5.80;;;18.00;99.90;;;;;;5114850;27;20043;-63
2023/07/01 10:48:42;;;;;;;6.78;6.10;;;18.10;99.90;;;;;;5113812;27;20043;-63
2023/07/01 10:51:12;;;;;;;6.13;5.63;;;18.10;99.90;;;;;;5126544;27;20039;-64
2023/07/01 10:53:58;;;;;;;6.07;5.57;;;18.10;99.90;;;;;;5124965;27;20074;-64
2023/07/01 10:56:24;;;;;;;6.25;5.75;;;18.10;99.90;;;;;;5119287;27;20046;-64
2023/07/01 10:59:22;;;;;;;5.95;5.45;;;18.10;99.90;;;;;;5119335;27;20035;-64
2023/07/01 11:01:59;;;;;;;6.70;6.00;;;18.10;99.90;;;;;;5032350;28;20052;-64
2023/07/01 11:04:45;;;;;;;6.50;5.90;;;18.10;99.90;;;;;;5030512;28;20618;-64
2023/07/01 11:07:11;;;;;;;6.78;6.25;;;18.10;99.90;;;;;;5029026;28;20053;-62
2023/07/01 11:09:36;;;;;;;6.90;6.28;;;18.10;99.90;;;;;;5048442;28;20067;-62
2023/07/01 11:12:04;;;;;;;6.28;5.78;;;18.10;99.90;;;;;;5031510;28;20427;-62
2023/07/01 11:14:34;;;;;;;6.45;5.85;;;18.10;99.90;;;;;;5045969;28;20033;-63
2023/07/01 11:17:09;;;;;;;6.80;6.13;;;18.10;99.90;;;;;;5031165;28;20122;-62
2023/07/01 11:19:36;;;;;;;6.32;5.70;;;18.10;99.90;;;;;;5047200;28;20499;-64
2023/07/01 11:22:02;;;;;;;8.35;5.90;;;18.20;99.90;;;;;;5030054;28;20126;-63
2023/07/01 11:24:29;;;;;;;7.75;5.45;;;18.30;99.90;;;;;;5031378;28;20631;-65
2023/07/01 11:27:03;;;;;;;5.90;5.40;;;18.30;99.90;;;;;;5048203;28;20037;-64
2023/07/01 11:29:30;;;;;;;8.15;6.13;;;18.30;99.90;;;;;;5031584;28;20419;-65
2023/07/01 11:32:07;;;;;;;5.80;5.30;;;18.30;99.90;;;;;;5030560;28;20060;-64
2023/07/01 11:34:33;;;;;;;4.55;3.17;;;18.30;99.90;;;;;;5031413;28;20114;-64
2023/07/01 11:37:00;;;;;;;6.13;3.10;;;18.20;99.90;;;;;;5032198;28;20499;-63
2023/07/01 11:39:26;;;;;;;4.88;3.47;;;18.10;99.90;;;;;;5110177;28;20080;-64
2023/07/01 11:41:54;;;;;;;4.47;4.07;;;18.00;99.90;;;;;;5108027;28;20043;-64
2023/07/01 11:44:24;;;;;;;5.10;3.45;;;18.00;99.90;;;;;;5108346;28;20172;-64
2023/07/01 11:46:52;;;;;;;4.90;4.40;;;18.10;99.90;;;;;;5109691;28;20111;-64
2023/07/01 11:49:17;;;;;;;4.40;4.00;;;18.30;99.90;;;;;;5106820;28;20402;-64
2023/07/01 11:51:51;;;;;;;5.45;4.40;;;18.50;99.90;;;;;;5111066;28;20047;-64
2023/07/01 11:54:20;;;;;;;5.95;4.70;;;18.70;99.90;;;;;;5108819;28;20035;-64
2023/07/01 11:56:46;;;;;;;5.55;4.72;;;19.00;99.90;;;;;;5109906;28;20313;-64
2023/07/01 11:59:35;;;;;;;4.38;3.97;;;19.10;99.90;;;;;;5104212;28;20510;-63
2023/07/01 12:02:01;;;;;;;4.53;4.13;;;19.00;99.90;;;;;;5108988;28;20181;-64
2023/07/01 12:04:30;;;;;;;6.22;3.97;;;18.80;99.90;;;;;;5108931;28;20169;-63
2023/07/01 12:07:25;;;;;;;6.07;4.10;;;18.80;99.90;;;;;;5106104;28;20044;-64
2023/07/01 12:09:51;;;;;;;4.90;4.10;;;18.90;99.90;;;;;;5058421;28;20503;-65
2023/07/01 12:12:36;;;;;;;5.80;4.22;;;18.80;99.90;;;;;;5036747;28;20059;-66
2023/07/01 12:15:07;;;;;;;4.53;4.18;;;18.80;99.90;;;;;;5054820;28;20044;-64
2023/07/01 12:17:34;;;;;;;4.93;4.30;;;18.80;99.90;;;;;;5079731;28;20063;-64
2023/07/01 12:20:00;;;;;;;7.05;4.70;;;18.80;99.90;;;;;;5079301;28;20130;-64
2023/07/01 12:22:27;;;;;;;5.45;4.95;;;18.90;99.90;;;;;;5058602;28;20055;-64
2023/07/01 12:24:58;;;;;;;7.53;5.05;;;18.90;99.90;;;;;;5062783;28;20056;-64
2023/07/01 12:27:24;;;;;;;5.88;5.13;;;19.00;99.90;;;;;;5058001;28;20569;-66
2023/07/01 12:29:49;;;;;;;5.90;5.28;;;19.10;99.90;;;;;;5080875;28;20032;-66
2023/07/01 12:32:15;;;;;;;6.35;5.25;;;19.10;99.90;;;;;;5064447;28;20040;-63
2023/07/01 12:34:41;;;;;;;8.60;6.30;;;19.10;99.90;;;;;;5065390;28;20064;-64
2023/07/01 12:37:10;;;;;;;7.43;5.57;;;19.10;99.90;;;;;;5062338;28;20044;-63
2023/07/01 12:39:36;;;;;;;7.82;6.05;;;19.00;99.90;;;;;;5054814;28;20060;-64
2023/07/01 12:42:03;;;;;;;7.40;6.18;;;19.00;99.90;;;;;;5071130;28;20055;-64
2023/07/01 12:44:29;;;;;;;6.85;6.25;;;19.00;99.90;;;;;;5057543;28;20082;-63
2023/07/01 12:46:54;;;;;;;7.20;6.43;;;19.10;99.90;;;;;;5084483;28;20467;-64
2023/07/01 12:49:21;;;;;;;9.20;7.13;;;19.10;99.90;;;;;;5098968;28;20050;-65